This is the latest recevied weather packets stored in our database for station/object N2GWK. If no packets are shown the sender has not sent any weather packets the latest 10 day(s).
| Time | Temp. | Humidity | Pressure | Rain* | Wind** | Luminosity | Snow |
|---|---|---|---|---|---|---|---|
| 1777753531 | 15.56° C | 59% | 1017.6 hPa | 0 mm | - | - | - |
| 1777749929 | 13.33° C | 66% | 1018.2 hPa | 0 mm | - | - | - |
| 1777748127 | 13.33° C | 65% | 1018.2 hPa | 0 mm | - | - | - |
| 1777745730 | 12.78° C | 65% | 1018.4 hPa | 0 mm | - | - | - |
| 1777741517 | 13.89° C | 63% | 1018.6 hPa | 0 mm | - | - | - |
| 1777734931 | 13.89° C | 63% | 1018.8 hPa | 0 mm | - | - | - |
| 1777733728 | 12.22° C | 72% | 1018.8 hPa | 0 mm | - | - | - |
| 1777721727 | 3.33° C | 99% | 1018.1 hPa | 0 mm | - | - | - |
| 1777721150 | 3.33° C | 99% | 1018.1 hPa | 0 mm | - | - | - |
| 1777718130 | 3.33° C | 99% | 1017.3 hPa | 0 mm | - | - | - |
| 1777717533 | 3.33° C | 99% | 1017.5 hPa | 0 mm | - | - | - |
| 1777716938 | 2.78° C | 99% | 1017.4 hPa | 0 mm | - | - | - |
| 1777716321 | 2.78° C | 99% | 1017.4 hPa | 0 mm | - | - | - |
| 1777711522 | 3.33° C | 99% | 1017.6 hPa | 0 mm | - | - | - |
| 1777710319 | 3.33° C | 99% | 1017.4 hPa | 0 mm | - | - | - |
| 1777706729 | 4.44° C | 99% | 1017.6 hPa | 0 mm | - | - | - |
| 1777704321 | 4.44° C | 99% | 1017.4 hPa | 0 mm | - | - | - |
| 1777699523 | 5° C | 99% | 1018 hPa | 0 mm | - | - | - |
| 1777696529 | 5.56° C | 95% | 1017.9 hPa | 0 mm | - | - | - |
| 1777694722 | 6.11° C | 92% | 1018 hPa | 0 mm | - | - | - |
| 1777686918 | 10.56° C | 73% | 1017.6 hPa | 0 mm | - | - | - |
| 1777685724 | 11.11° C | 72% | 1017.1 hPa | 0 mm | - | - | - |
| 1777675519 | 17.22° C | 48% | 1014.9 hPa | 0 mm | - | - | - |
| 1777674350 | 17.78° C | 48% | 1014.7 hPa | 0 mm | - | - | - |
| 1777673123 | 18.33° C | 49% | 1014.7 hPa | 0 mm | - | - | - |
* Rain latest hour (hover to see other rain measurements)
** Current wind speed in m/s (hover to see current wind gust speed)